Time;durP1;ratioP1;P1;durP2;ratioP2;P2;SDS_P1;SDS_P2;PMS_P1;PMS_P2;Temp;Humidity;BMP_temperature;BMP_pressure;BME280_temperature;BME280_humidity;BME280_pressure;Samples;Min_cycle;Max_cycle;Signal;HPM_P1;HPM_P2
2023/01/18 00:01:14;;;;;;;23.13;13.32;;;;;;;-3.91;98.83;99043.28;4865663;29;20037;-68
2023/01/18 00:03:41;;;;;;;22.70;13.10;;;;;;;-3.93;98.82;99034.69;4856374;29;20082;-68
2023/01/18 00:06:11;;;;;;;20.45;12.95;;;;;;;-3.91;99.07;99043.28;4872217;29;20182;-68
2023/01/18 00:08:41;;;;;;;22.35;13.25;;;;;;;-3.93;98.90;99042.41;4855690;29;20057;-68
2023/01/18 00:11:14;;;;;;;24.33;13.00;;;;;;;-3.92;99.15;99041.56;4860681;29;20054;-69
2023/01/18 00:13:42;;;;;;;25.05;13.63;;;;;;;-3.90;98.86;99036.41;4868661;29;20473;-68
2023/01/18 00:16:16;;;;;;;23.77;12.90;;;;;;;-3.89;99.04;99038.13;4867257;29;20037;-70
2023/01/18 00:18:52;;;;;;;25.42;12.93;;;;;;;-3.90;99.20;99046.69;4870333;29;20140;-70
2023/01/18 00:21:20;;;;;;;25.02;12.85;;;;;;;-3.91;99.08;99048.44;4858672;29;20041;-69
2023/01/18 00:23:47;;;;;;;22.60;12.45;;;;;;;-3.92;99.01;99049.28;4864009;29;20049;-69
2023/01/18 00:26:15;;;;;;;24.40;13.60;;;;;;;-3.90;99.09;99042.44;4871984;29;20042;-70
2023/01/18 00:28:42;;;;;;;26.40;13.80;;;;;;;-3.89;99.02;99043.28;4871838;29;20081;-70
2023/01/18 00:31:19;;;;;;;22.65;13.27;;;;;;;-3.90;99.06;99042.44;4868833;29;20037;-69
2023/01/18 00:33:48;;;;;;;21.98;12.18;;;;;;;-3.91;99.01;99042.41;4864407;29;20052;-70
2023/01/18 00:36:17;;;;;;;26.80;13.45;;;;;;;-3.90;99.14;99050.16;4862134;29;20124;-70
2023/01/18 00:38:51;;;;;;;22.83;12.70;;;;;;;-3.88;99.01;99047.56;4871469;29;20542;-70
2023/01/18 00:41:20;;;;;;;22.97;12.70;;;;;;;-3.87;99.11;99045.88;4861743;29;20117;-70
2023/01/18 00:43:50;;;;;;;23.40;12.57;;;;;;;-3.87;99.12;99043.28;4864789;29;20046;-70
2023/01/18 00:46:26;;;;;;;21.83;12.38;;;;;;;-3.86;98.95;99048.44;4866696;29;20053;-69
2023/01/18 00:48:54;;;;;;;22.27;13.20;;;;;;;-3.87;99.19;99054.44;4867913;29;20152;-69
2023/01/18 00:51:24;;;;;;;25.15;12.85;;;;;;;-3.86;99.22;99051.00;4866284;29;20910;-69
2023/01/18 00:53:51;;;;;;;22.25;12.45;;;;;;;-3.87;99.00;99051.84;4871323;29;20052;-69
2023/01/18 00:56:21;;;;;;;21.80;12.95;;;;;;;-3.85;99.05;99054.41;4867949;29;20054;-69
2023/01/18 00:58:49;;;;;;;21.75;12.40;;;;;;;-3.87;99.04;99049.28;4869002;29;20110;-70
2023/01/18 01:01:16;;;;;;;21.58;11.82;;;;;;;-3.86;99.13;99052.69;4855911;29;20046;-69
2023/01/18 01:06:43;;;;;;;21.70;12.73;;;;;;;-3.95;98.97;99051.00;4866612;29;20900;-70
2023/01/18 01:09:21;;;;;;;21.83;12.60;;;;;;;-3.96;98.89;99059.59;4869048;29;20593;-70
2023/01/18 01:26:07;;;;;;;21.10;12.45;;;;;;;-3.95;98.78;99061.31;4864098;29;20098;-71
2023/01/18 01:28:36;;;;;;;21.05;13.45;;;;;;;-3.95;98.87;99062.16;4867296;29;20056;-70
2023/01/18 01:31:08;;;;;;;25.42;13.50;;;;;;;-3.95;98.96;99066.44;4854094;29;20078;-70
2023/01/18 01:33:36;;;;;;;25.10;13.73;;;;;;;-3.96;98.78;99062.16;4857207;29;20156;-70
2023/01/18 01:36:12;;;;;;;24.75;13.32;;;;;;;-3.97;98.92;99070.75;4860946;29;20045;-70
2023/01/18 01:38:40;;;;;;;26.88;13.68;;;;;;;-3.98;99.06;99064.75;4853655;29;20056;-70
2023/01/18 01:41:12;;;;;;;20.00;12.38;;;;;;;-3.98;98.88;99075.03;4861807;29;20081;-70
2023/01/18 01:43:39;;;;;;;28.08;13.70;;;;;;;-3.97;98.71;99075.88;4868331;29;20048;-70
2023/01/18 01:46:34;;;;;;;20.92;12.55;;;;;;;-3.96;98.93;99082.75;4853935;29;20046;-69
2023/01/18 01:49:19;;;;;;;22.40;12.60;;;;;;;-3.97;98.97;99087.06;4856245;29;20038;-71
2023/01/18 01:51:55;;;;;;;;;;;;;;;-3.97;98.75;99088.75;4866342;29;20057;-71
2023/01/18 01:54:30;;;;;;;20.98;12.23;;;;;;;-3.99;98.80;99085.31;4862073;29;19933;-70
2023/01/18 01:57:05;;;;;;;21.63;11.70;;;;;;;-4.01;98.74;99093.06;4867386;29;20120;-70
2023/01/18 01:59:41;;;;;;;20.33;11.82;;;;;;;-4.03;98.72;99087.03;4868273;29;20505;-70
2023/01/18 02:02:09;;;;;;;21.88;13.23;;;;;;;-4.02;98.91;99090.50;4869589;29;20134;-69
2023/01/18 02:04:43;;;;;;;23.70;12.77;;;;;;;-4.04;98.67;99094.78;4872517;29;20073;-69
2023/01/18 02:07:11;;;;;;;25.92;13.20;;;;;;;-4.06;98.90;99098.19;4866671;29;20078;-69
2023/01/18 02:09:39;;;;;;;24.42;12.90;;;;;;;-4.06;98.73;99090.47;4872784;29;20058;-69
2023/01/18 02:12:06;;;;;;;24.52;12.45;;;;;;;-4.06;98.88;99094.75;4867500;29;20053;-68
2023/01/18 02:14:34;;;;;;;20.95;12.55;;;;;;;-4.04;98.87;99095.63;4874117;29;20096;-69
2023/01/18 02:17:37;;;;;;;23.05;12.68;;;;;;;-4.03;99.00;99093.91;4862485;29;20050;-68
2023/01/18 02:20:37;;;;;;;21.10;12.43;;;;;;;-4.01;99.04;99100.78;4861683;29;20149;-69
2023/01/18 02:23:34;;;;;;;23.88;13.02;;;;;;;-4.01;98.98;99098.19;4862122;29;20038;-69
2023/01/18 02:26:19;;;;;;;22.35;12.57;;;;;;;-4.01;98.95;99105.03;4867657;29;20042;-69
2023/01/18 02:29:16;;;;;;;21.20;12.23;;;;;;;-4.04;99.06;99108.50;4871449;29;20049;-69
2023/01/18 02:32:07;;;;;;;21.45;12.52;;;;;;;-4.07;98.74;99103.34;4872171;29;20122;-70
2023/01/18 02:34:51;;;;;;;23.17;12.90;;;;;;;-4.09;98.74;99110.22;4871382;29;20815;-69
2023/01/18 02:37:38;;;;;;;18.55;11.52;;;;;;;-4.14;98.53;99107.63;4870563;29;20120;-70
2023/01/18 02:40:33;;;;;;;19.98;12.18;;;;;;;-4.21;98.59;99108.44;4860800;29;20049;-70
2023/01/18 02:48:41;;;;;;;21.30;11.57;;;;;;;-4.36;98.34;99117.00;4866158;29;20804;-70
2023/01/18 02:51:09;;;;;;;22.58;13.18;;;;;;;-4.35;98.43;99126.44;4868574;29;20053;-70
2023/01/18 02:53:45;;;;;;;23.17;12.48;;;;;;;-4.34;98.67;99115.28;4873545;29;20480;-70
2023/01/18 02:56:38;;;;;;;21.58;11.88;;;;;;;-4.35;98.95;99116.16;4863070;29;20050;-70
2023/01/18 02:59:08;;;;;;;22.63;12.00;;;;;;;-4.42;98.59;99124.72;4860530;29;20138;-70
2023/01/18 03:01:45;;;;;;;22.80;11.65;;;;;;;-4.47;98.43;99126.41;4868172;29;20045;-70
2023/01/18 03:04:22;;;;;;;24.70;11.85;;;;;;;-4.52;98.39;99129.84;4871485;29;20052;-70
2023/01/18 03:07:09;;;;;;;23.02;11.85;;;;;;;-4.53;98.21;99127.25;4871596;29;20049;-70
2023/01/18 03:09:40;;;;;;;21.15;11.75;;;;;;;-4.57;98.35;99120.38;4873566;29;20598;-70
2023/01/18 03:12:44;;;;;;;19.48;11.45;;;;;;;-4.62;98.25;99127.19;4867157;29;20042;-70
2023/01/18 03:15:27;;;;;;;20.02;11.50;;;;;;;-4.64;98.41;99126.38;4873461;29;20455;-70
2023/01/18 03:18:01;;;;;;;21.90;11.85;;;;;;;-4.67;98.31;99122.03;4868513;29;20053;-68
2023/01/18 03:20:36;;;;;;;23.20;12.20;;;;;;;-4.70;98.52;99130.63;4870366;29;20141;-68
2023/01/18 03:26:06;;;;;;;29.13;12.13;;;;;;;-4.82;97.95;99134.84;4865847;29;20046;-69
2023/01/18 03:35:16;;;;;;;19.00;11.05;;;;;;;-5.00;98.12;99139.06;4862690;29;20069;-70
2023/01/18 03:37:46;;;;;;;17.88;11.15;;;;;;;-5.02;98.20;99143.31;4865995;29;20054;-70
2023/01/18 03:40:21;;;;;;;21.50;12.07;;;;;;;-5.06;97.78;99139.88;4872520;29;20046;-70
2023/01/18 03:43:13;;;;;;;19.95;11.68;;;;;;;-5.05;97.95;99148.44;4867518;29;20049;-70
2023/01/18 03:45:54;;;;;;;22.15;12.00;;;;;;;-5.10;97.86;99148.41;4873196;29;20052;-70
2023/01/18 03:48:22;;;;;;;27.48;12.70;;;;;;;-5.07;97.93;99147.56;4868963;29;20046;-70
2023/01/18 03:50:59;;;;;;;21.35;11.50;;;;;;;-5.07;98.10;99153.56;4870284;29;20049;-70
2023/01/18 03:53:37;;;;;;;23.80;12.57;;;;;;;-5.06;98.07;99150.16;4872842;29;20057;-70
2023/01/18 03:56:17;;;;;;;21.70;12.18;;;;;;;-5.05;98.27;99151.88;4869431;29;20049;-70
2023/01/18 03:58:50;;;;;;;21.08;11.73;;;;;;;-5.02;98.34;99163.88;4868036;29;20129;-66
2023/01/18 04:01:18;;;;;;;25.15;11.90;;;;;;;-5.03;98.17;99168.13;4861097;29;20069;-66
2023/01/18 04:03:45;;;;;;;23.38;12.45;;;;;;;-5.04;98.13;99173.28;4867239;29;20046;-66
2023/01/18 04:06:12;;;;;;;21.23;12.63;;;;;;;-5.07;98.33;99165.53;4863003;29;20161;-66
2023/01/18 04:08:39;;;;;;;23.08;12.73;;;;;;;-5.08;98.04;99159.56;4866819;29;20049;-67
2023/01/18 04:11:06;;;;;;;24.67;12.88;;;;;;;-5.09;98.05;99168.13;4866288;29;20046;-66
2023/01/18 04:13:33;;;;;;;21.92;12.98;;;;;;;-5.09;97.96;99162.97;4872265;29;20048;-66
2023/01/18 04:16:00;;;;;;;24.02;13.00;;;;;;;-5.07;98.21;99173.25;4872435;29;20047;-66
2023/01/18 04:18:27;;;;;;;26.08;12.77;;;;;;;-5.04;98.08;99163.00;4862865;29;20480;-66
2023/01/18 04:20:55;;;;;;;22.48;13.43;;;;;;;-5.02;98.17;99171.59;4867563;29;20480;-67
2023/01/18 04:23:22;;;;;;;21.85;13.48;;;;;;;-5.02;98.08;99177.56;4861934;29;20050;-67
2023/01/18 04:25:50;;;;;;;23.98;13.50;;;;;;;-5.01;98.04;99186.16;4862675;29;20046;-67
2023/01/18 04:28:24;;;;;;;24.05;12.88;;;;;;;-5.02;98.23;99185.28;4866362;29;20061;-68
2023/01/18 04:30:55;;;;;;;28.05;12.60;;;;;;;-5.00;98.16;99185.31;4860452;29;20056;-67
2023/01/18 04:33:25;;;;;;;23.42;12.35;;;;;;;-4.98;98.19;99188.72;4870444;29;20124;-67
2023/01/18 04:35:53;;;;;;;23.48;12.93;;;;;;;-4.96;98.29;99183.63;4869783;29;20071;-67
2023/01/18 04:38:21;;;;;;;26.63;12.77;;;;;;;-4.95;98.24;99188.75;4868254;29;20166;-69
2023/01/18 04:40:49;;;;;;;22.63;12.38;;;;;;;-4.94;98.32;99189.63;4867965;29;20056;-70
2023/01/18 04:43:17;;;;;;;21.00;11.98;;;;;;;-4.93;98.25;99187.06;4870926;29;20053;-70
2023/01/18 04:45:55;;;;;;;22.10;13.18;;;;;;;-4.92;98.14;99190.47;4871342;29;20045;-70
2023/01/18 04:48:23;;;;;;;21.80;11.73;;;;;;;-4.92;98.00;99195.63;4870723;29;20037;-70
2023/01/18 04:50:51;;;;;;;22.65;12.13;;;;;;;-4.95;98.04;99205.91;4869031;29;20913;-70
2023/01/18 04:53:19;;;;;;;21.30;12.20;;;;;;;-4.96;97.90;99211.91;4862181;29;20507;-69
2023/01/18 04:55:46;;;;;;;21.05;11.88;;;;;;;-4.97;98.03;99203.31;4863418;29;20041;-69
2023/01/18 04:58:14;;;;;;;27.27;11.80;;;;;;;-4.99;98.34;99200.75;4867112;29;20046;-69
2023/01/18 05:00:41;;;;;;;17.63;11.57;;;;;;;-5.00;98.16;99209.28;4856821;29;20049;-69
2023/01/18 05:03:10;;;;;;;28.35;12.00;;;;;;;-5.01;98.12;99215.28;4869954;29;20050;-69
2023/01/18 05:05:38;;;;;;;20.85;11.27;;;;;;;-5.00;98.15;99218.72;4872465;29;20050;-69
2023/01/18 05:08:05;;;;;;;21.10;12.38;;;;;;;-4.99;98.27;99223.03;4870991;29;20061;-69
2023/01/18 05:10:32;;;;;;;22.60;11.75;;;;;;;-4.95;98.33;99224.75;4866610;29;20050;-69
2023/01/18 05:12:59;;;;;;;20.33;10.85;;;;;;;-4.92;98.31;99226.47;4869805;29;20053;-69
2023/01/18 05:15:27;;;;;;;23.63;11.90;;;;;;;-4.92;98.27;99224.78;4865865;29;20070;-70
2023/01/18 05:17:54;;;;;;;24.00;11.57;;;;;;;-4.91;98.29;99226.50;4862850;29;20061;-70
2023/01/18 05:20:21;;;;;;;21.88;11.63;;;;;;;-4.93;98.33;99228.19;4870304;29;20530;-70
2023/01/18 05:22:48;;;;;;;26.05;11.35;;;;;;;-4.96;98.14;99237.59;4869805;29;20041;-69
2023/01/18 05:25:15;;;;;;;21.25;11.38;;;;;;;-5.00;98.03;99240.16;4869725;29;20025;-69
2023/01/18 05:27:42;;;;;;;20.90;11.05;;;;;;;-5.01;98.12;99233.28;4862351;29;20049;-69
2023/01/18 05:30:10;;;;;;;21.20;10.95;;;;;;;-5.00;98.39;99235.00;4859720;29;20522;-68
2023/01/18 05:32:37;;;;;;;19.33;11.20;;;;;;;-4.99;98.19;99234.16;4861921;29;20044;-68
2023/01/18 05:35:06;;;;;;;18.27;10.32;;;;;;;-4.97;98.24;99235.88;4869145;29;20054;-68
2023/01/18 05:37:33;;;;;;;23.67;11.30;;;;;;;-4.93;98.21;99242.75;4866253;29;20050;-68
2023/01/18 05:40:00;;;;;;;21.20;10.75;;;;;;;-4.91;98.39;99241.06;4874569;29;20150;-68
2023/01/18 05:42:27;;;;;;;20.02;10.45;;;;;;;-4.88;98.37;99243.66;4859711;29;20899;-66
2023/01/18 05:44:54;;;;;;;20.10;10.65;;;;;;;-4.81;98.48;99252.28;4861174;29;20513;-66
2023/01/18 05:47:21;;;;;;;17.58;11.00;;;;;;;-4.75;98.51;99252.31;4870587;29;20042;-68
2023/01/18 05:49:48;;;;;;;27.52;12.15;;;;;;;-4.70;98.59;99261.78;4867118;29;20050;-69
2023/01/18 05:52:15;;;;;;;24.33;12.20;;;;;;;-4.64;98.55;99265.25;4869093;29;20053;-69
2023/01/18 05:54:42;;;;;;;24.20;12.18;;;;;;;-4.60;98.67;99256.69;4864154;29;20050;-69
2023/01/18 05:57:09;;;;;;;23.17;12.27;;;;;;;-4.55;98.59;99255.84;4862215;29;20050;-69
2023/01/18 05:59:36;;;;;;;23.55;11.77;;;;;;;-4.49;98.71;99255.03;4868027;29;20142;-66
2023/01/18 06:02:04;;;;;;;25.98;12.80;;;;;;;-4.41;98.76;99255.06;4857796;29;20045;-67
2023/01/18 06:04:31;;;;;;;23.50;12.40;;;;;;;-4.39;98.69;99258.53;4866398;29;20073;-70
2023/01/18 06:06:58;;;;;;;21.45;12.15;;;;;;;-4.35;98.53;99264.53;4865409;29;20046;-68
2023/01/18 06:09:25;;;;;;;20.92;12.43;;;;;;;-4.37;98.68;99262.81;4866017;29;20061;-69
2023/01/18 06:11:52;;;;;;;19.42;12.05;;;;;;;-4.33;98.43;99260.28;4864942;29;20526;-70
2023/01/18 06:14:19;;;;;;;23.65;12.80;;;;;;;-4.32;98.75;99265.41;4865272;29;20689;-69
2023/01/18 06:16:46;;;;;;;21.40;12.40;;;;;;;-4.30;98.63;99273.13;4868741;29;20049;-69
2023/01/18 06:19:13;;;;;;;18.80;11.88;;;;;;;-4.30;98.50;99275.69;4863419;29;20068;-69
2023/01/18 06:21:40;;;;;;;23.75;13.20;;;;;;;-4.27;98.78;99278.31;4875338;29;20550;-69
2023/01/18 06:24:07;;;;;;;23.40;12.27;;;;;;;-4.24;98.97;99279.16;4873029;29;20049;-69
2023/01/18 06:26:34;;;;;;;25.73;13.13;;;;;;;-4.21;98.92;99286.91;4873630;29;20359;-68
2023/01/18 06:29:02;;;;;;;26.20;12.13;;;;;;;-4.17;99.09;99280.06;4871105;29;20072;-71
2023/01/18 06:31:29;;;;;;;23.55;13.00;;;;;;;-4.16;98.88;99291.22;4867465;29;20482;-71
2023/01/18 06:33:56;;;;;;;22.25;11.52;;;;;;;-4.16;98.92;99286.06;4861004;29;20045;-70
2023/01/18 06:36:23;;;;;;;23.65;12.35;;;;;;;-4.15;98.96;99291.25;4860946;29;20046;-71
2023/01/18 06:38:50;;;;;;;22.45;12.65;;;;;;;-4.07;99.21;99296.44;4866909;29;20054;-70
2023/01/18 06:41:17;;;;;;;22.17;13.13;;;;;;;-4.01;99.30;99296.44;4873158;29;20094;-71
2023/01/18 06:43:44;;;;;;;24.65;13.10;;;;;;;-3.97;99.45;99293.03;4872410;29;20563;-70
2023/01/18 06:46:11;;;;;;;34.53;13.25;;;;;;;-3.92;99.33;99300.78;4872418;29;20046;-71
2023/01/18 06:48:39;;;;;;;25.73;12.35;;;;;;;-3.92;99.38;99299.06;4872810;29;20049;-71
2023/01/18 06:51:06;;;;;;;21.80;11.90;;;;;;;-3.91;99.31;99305.03;4869908;29;20049;-72
2023/01/18 06:53:33;;;;;;;24.55;13.60;;;;;;;-3.87;99.24;99314.50;4870089;29;20053;-70
2023/01/18 06:56:04;;;;;;;22.98;13.00;;;;;;;-3.83;99.06;99315.38;4863342;29;20133;-69
2023/01/18 06:58:32;;;;;;;24.33;12.82;;;;;;;-3.81;99.32;99323.97;4857416;29;20106;-69
2023/01/18 07:01:00;;;;;;;28.42;13.80;;;;;;;-3.83;99.20;99321.41;4859283;29;20042;-72
2023/01/18 07:03:29;;;;;;;23.25;13.45;;;;;;;-3.86;98.95;99323.09;4860094;29;20074;-70
2023/01/18 07:05:59;;;;;;;21.45;12.93;;;;;;;-3.89;98.87;99331.66;4865745;29;20045;-70
2023/01/18 07:08:31;;;;;;;24.13;13.05;;;;;;;-3.88;98.96;99333.41;4862419;29;20050;-70
2023/01/18 07:11:08;;;;;;;21.77;13.27;;;;;;;-3.85;99.05;99338.56;4857217;29;20128;-70
2023/01/18 07:13:39;;;;;;;22.95;13.40;;;;;;;-3.81;98.96;99336.84;4859139;29;20121;-70
2023/01/18 07:16:08;;;;;;;24.67;14.20;;;;;;;-3.82;98.99;99341.16;4861988;29;20108;-70
2023/01/18 07:18:35;;;;;;;23.98;13.93;;;;;;;-3.82;99.14;99351.47;4874080;29;20093;-70
2023/01/18 07:21:09;;;;;;;23.38;13.52;;;;;;;-3.84;98.82;99350.59;4872382;29;20061;-70
2023/01/18 07:23:38;;;;;;;35.70;18.02;;;;;;;-3.84;98.79;99354.88;4866921;29;20041;-69
2023/01/18 07:26:16;;;;;;;36.08;19.50;;;;;;;-3.84;98.75;99362.59;4869683;29;20046;-69
2023/01/18 07:28:44;;;;;;;38.67;20.83;;;;;;;-3.83;98.93;99372.91;4863949;29;20114;-70
2023/01/18 07:31:13;;;;;;;52.63;23.52;;;;;;;-3.83;98.79;99366.88;4855353;29;20046;-70
2023/01/18 07:33:41;;;;;;;52.63;27.40;;;;;;;-3.82;98.98;99368.63;4858795;29;20059;-69
2023/01/18 07:36:09;;;;;;;50.60;23.38;;;;;;;-3.81;98.98;99362.63;4856773;29;20124;-71
2023/01/18 07:38:38;;;;;;;62.45;29.98;;;;;;;-3.79;99.15;99376.38;4857784;29;20054;-70
2023/01/18 07:41:10;;;;;;;55.38;26.30;;;;;;;-3.76;99.38;99371.22;4855028;29;20089;-70
2023/01/18 07:43:37;;;;;;;52.55;24.67;;;;;;;-3.71;99.44;99377.25;4869076;29;20050;-70
2023/01/18 07:46:07;;;;;;;41.25;22.92;;;;;;;-3.65;99.55;99379.84;4867019;29;20068;-70
2023/01/18 07:48:34;;;;;;;40.45;19.30;;;;;;;-3.57;99.64;99382.47;4858119;29;20046;-70
2023/01/18 07:51:08;;;;;;;34.20;19.25;;;;;;;-3.54;99.59;99376.44;4869870;29;20121;-70
2023/01/18 07:53:37;;;;;;;34.83;19.55;;;;;;;-3.54;99.38;99382.47;4872043;29;20052;-70
2023/01/18 07:56:12;;;;;;;37.47;20.13;;;;;;;-3.57;99.11;99382.47;4863430;29;20076;-70
2023/01/18 07:58:39;;;;;;;42.10;20.80;;;;;;;-3.55;99.18;99391.06;4870583;29;20057;-70
2023/01/18 08:01:16;;;;;;;37.40;20.13;;;;;;;-3.53;99.05;99393.63;4874295;29;20125;-70
2023/01/18 08:03:46;;;;;;;36.75;20.38;;;;;;;-3.50;99.04;99396.22;4868911;29;20053;-70
2023/01/18 08:06:19;;;;;;;51.42;24.50;;;;;;;-3.47;98.78;99399.69;4868636;29;20045;-71
2023/01/18 08:08:46;;;;;;;50.92;24.05;;;;;;;-3.45;98.80;99400.56;4872879;29;20140;-70
2023/01/18 08:11:13;;;;;;;37.53;17.92;;;;;;;-3.41;98.87;99406.56;4870496;29;20098;-71
2023/01/18 08:13:40;;;;;;;37.50;17.90;;;;;;;-3.39;98.90;99401.41;4860373;29;20046;-71
2023/01/18 08:16:10;;;;;;;30.75;16.75;;;;;;;-3.34;98.57;99403.16;4873515;29;20052;-71
2023/01/18 08:18:39;;;;;;;33.00;17.70;;;;;;;-3.29;98.86;99400.59;4872455;29;20057;-70
2023/01/18 08:21:10;;;;;;;27.48;17.50;;;;;;;-3.22;98.90;99407.50;4872419;29;20049;-68
2023/01/18 08:23:38;;;;;;;26.23;15.20;;;;;;;-3.16;99.03;99404.09;4874112;29;20058;-71
2023/01/18 08:26:07;;;;;;;33.35;19.90;;;;;;;-3.09;98.94;99407.50;4873654;29;20067;-70
2023/01/18 08:28:34;;;;;;;32.03;18.23;;;;;;;-3.04;98.97;99413.56;4873814;29;20037;-71
2023/01/18 08:31:07;;;;;;;23.98;14.75;;;;;;;-3.02;98.90;99417.84;4874073;29;20041;-71
2023/01/18 08:33:38;;;;;;;22.52;13.73;;;;;;;-2.93;98.80;99418.72;4854074;29;20054;-71
2023/01/18 08:36:10;;;;;;;25.00;14.35;;;;;;;-2.83;98.94;99425.63;4854523;29;20054;-73
2023/01/18 08:38:37;;;;;;;24.63;16.17;;;;;;;-2.73;98.87;99423.94;4854201;29;20042;-71
2023/01/18 08:41:04;;;;;;;23.33;14.55;;;;;;;-2.65;98.86;99422.22;4854129;29;20493;-70
2023/01/18 08:43:32;;;;;;;24.17;15.57;;;;;;;-2.59;98.85;99424.78;4855090;29;20045;-72
2023/01/18 08:45:59;;;;;;;29.90;16.65;;;;;;;-2.54;98.72;99433.41;4854307;29;20045;-70
2023/01/18 08:48:26;;;;;;;25.35;16.88;;;;;;;-2.49;98.55;99428.25;4854380;29;20498;-71
2023/01/18 08:50:53;;;;;;;26.95;15.48;;;;;;;-2.45;98.58;99422.22;4854833;29;20513;-71
2023/01/18 08:53:20;;;;;;;29.08;16.48;;;;;;;-2.41;98.63;99425.66;4855084;29;20471;-72
2023/01/18 08:55:48;;;;;;;34.63;17.73;;;;;;;-2.34;98.55;99425.66;4853578;29;20101;-71
2023/01/18 08:58:15;;;;;;;24.67;15.38;;;;;;;-2.29;98.44;99437.69;4854945;29;21039;-71
2023/01/18 09:00:44;;;;;;;25.08;14.63;;;;;;;-2.23;98.46;99435.09;4854080;29;20049;-72
2023/01/18 09:03:12;;;;;;;21.27;13.50;;;;;;;-2.14;98.37;99444.56;4854706;29;20128;-70
2023/01/18 09:05:39;;;;;;;20.08;13.52;;;;;;;-2.07;98.36;99454.03;4857102;29;20042;-70
2023/01/18 09:08:07;;;;;;;22.48;15.02;;;;;;;-1.98;98.26;99458.34;4857512;29;20065;-70
2023/01/18 09:10:36;;;;;;;20.88;13.55;;;;;;;-1.93;98.08;99449.72;4857016;29;20045;-70
2023/01/18 09:13:04;;;;;;;22.00;14.27;;;;;;;-1.87;98.00;99462.63;4858316;29;20516;-70
2023/01/18 09:15:31;;;;;;;21.60;13.93;;;;;;;-1.83;98.11;99453.13;4858203;29;20490;-70
2023/01/18 09:18:04;;;;;;;21.80;14.52;;;;;;;-1.79;97.90;99461.75;4875724;29;20123;-69
2023/01/18 09:20:34;;;;;;;24.45;14.23;;;;;;;-1.77;97.94;99473.81;4871088;29;20201;-70
2023/01/18 09:23:09;;;;;;;20.48;13.52;;;;;;;-1.73;97.62;99478.09;4867745;29;20472;-71
2023/01/18 09:25:36;;;;;;;24.17;14.75;;;;;;;-1.70;97.60;99479.84;4868497;29;20038;-70
2023/01/18 09:28:04;;;;;;;22.95;14.73;;;;;;;-1.66;97.58;99491.88;4865751;29;20046;-70
2023/01/18 09:30:32;;;;;;;20.42;13.38;;;;;;;-1.60;97.57;99493.56;4858192;29;20137;-70
2023/01/18 09:32:59;;;;;;;20.95;13.98;;;;;;;-1.56;97.45;99495.31;4872939;29;20045;-70
2023/01/18 09:35:27;;;;;;;21.58;14.10;;;;;;;-1.48;97.24;99495.28;4876433;29;20073;-70
2023/01/18 09:37:54;;;;;;;18.23;12.85;;;;;;;-1.39;97.33;99497.84;4875307;29;20041;-70
2023/01/18 09:40:36;;;;;;;19.65;13.00;;;;;;;-1.30;97.27;99500.41;4875084;29;20080;-70
2023/01/18 09:43:17;;;;;;;21.92;13.00;;;;;;;-1.18;97.14;99507.25;4873063;29;20502;-70
2023/01/18 09:45:46;;;;;;;20.23;13.23;;;;;;;-1.10;97.07;99507.22;4862919;29;20454;-69
2023/01/18 09:48:30;;;;;;;23.73;14.18;;;;;;;-0.96;97.08;99513.19;4875566;29;20053;-69
2023/01/18 09:51:07;;;;;;;16.88;11.70;;;;;;;-0.79;97.08;99512.25;4874111;29;20049;-69
2023/01/18 09:54:02;;;;;;;20.70;12.48;;;;;;;-0.59;97.23;99519.91;4874960;29;20085;-69
2023/01/18 09:57:43;;;;;;;24.13;13.35;;;;;;;-0.36;97.10;99522.38;4870186;29;22117;-69
2023/01/18 10:00:35;;;;;;;18.63;11.52;;;;;;;-0.34;96.94;99528.38;4868925;29;20049;-69
2023/01/18 10:03:32;;;;;;;20.27;11.63;;;;;;;-0.37;96.67;99530.13;4871855;29;20046;-70
2023/01/18 10:06:09;;;;;;;18.98;11.77;;;;;;;-0.37;96.46;99532.72;4868555;29;20052;-69
2023/01/18 10:08:52;;;;;;;18.02;11.63;;;;;;;-0.32;96.30;99531.81;4857234;29;20114;-70
2023/01/18 10:11:47;;;;;;;18.70;12.05;;;;;;;-0.24;96.06;99536.09;4858643;29;20522;-70
2023/01/18 10:14:39;;;;;;;19.13;11.80;;;;;;;-0.19;96.17;99542.09;4871878;29;20490;-70
2023/01/18 10:17:39;;;;;;;22.10;11.80;;;;;;;-0.13;96.04;99541.19;4863043;29;20054;-70
2023/01/18 10:20:33;;;;;;;21.10;11.70;;;;;;;-0.07;95.99;99544.63;4859432;29;20068;-70
2023/01/18 10:23:27;;;;;;;21.42;11.90;;;;;;;0.00;95.80;99540.25;4874620;29;20052;-70
2023/01/18 10:26:25;;;;;;;19.48;12.40;;;;;;;0.08;95.74;99553.13;4868820;29;20050;-70
2023/01/18 10:29:38;;;;;;;17.05;11.60;;;;;;;0.10;95.45;99541.88;4864694;29;20045;-70
2023/01/18 10:32:17;;;;;;;20.95;11.70;;;;;;;0.16;95.59;99538.38;4865757;29;20066;-70
2023/01/18 10:34:50;;;;;;;17.88;10.65;;;;;;;0.20;95.37;99527.09;4861310;29;20102;-70
2023/01/18 10:37:44;;;;;;;18.17;10.80;;;;;;;0.28;95.17;99529.63;4869904;29;20062;-70
2023/01/18 10:40:13;;;;;;;16.65;10.57;;;;;;;0.32;94.92;99527.88;4872766;29;20165;-70
2023/01/18 10:42:52;;;;;;;14.60;9.75;;;;;;;0.40;94.86;99528.66;4870690;29;20056;-70
2023/01/18 10:45:24;;;;;;;17.80;10.68;;;;;;;0.49;94.87;99531.16;4859585;29;20054;-70
2023/01/18 10:47:55;;;;;;;15.60;10.15;;;;;;;0.57;94.63;99537.13;4857913;29;20552;-70
2023/01/18 10:50:36;;;;;;;16.75;9.77;;;;;;;0.63;94.57;99541.38;4860754;29;20041;-70
2023/01/18 10:53:34;;;;;;;14.80;9.43;;;;;;;0.72;94.20;99538.69;4856443;29;20050;-70
2023/01/18 10:56:15;;;;;;;14.52;9.63;;;;;;;0.81;94.28;99545.53;4865976;29;20066;-70
2023/01/18 10:58:51;;;;;;;15.75;9.75;;;;;;;0.86;94.13;99532.50;4874746;29;20049;-70
2023/01/18 11:01:21;;;;;;;16.55;9.63;;;;;;;0.97;93.96;99550.56;4872950;29;20050;-69
2023/01/18 11:03:54;;;;;;;14.32;9.38;;;;;;;1.04;93.72;99544.41;4874073;29;20045;-70
2023/01/18 11:06:24;;;;;;;15.75;9.18;;;;;;;1.11;93.53;99546.03;4873982;29;20041;-69
2023/01/18 11:08:52;;;;;;;18.63;9.48;;;;;;;1.18;93.34;99542.47;4874448;29;20057;-70
2023/01/18 11:12:32;;;;;;;17.83;9.10;;;;;;;1.26;93.16;99546.75;4873346;29;20124;-70
2023/01/18 11:14:30;;;;;;;15.38;8.93;;;;;;;1.33;92.77;99545.78;4872574;29;20073;-70
2023/01/18 11:17:01;;;;;;;15.52;8.43;;;;;;;1.40;92.69;99544.81;4871438;29;20045;-70
2023/01/18 11:19:29;;;;;;;15.73;8.52;;;;;;;1.46;92.64;99538.66;4855086;29;20061;-70
2023/01/18 11:21:56;;;;;;;13.18;8.15;;;;;;;1.53;92.63;99541.16;4858371;29;20057;-70
2023/01/18 11:24:29;;;;;;;13.30;8.15;;;;;;;1.61;92.49;99540.19;4860602;29;20483;-70
2023/01/18 11:27:06;;;;;;;11.83;8.33;;;;;;;1.66;92.16;99547.03;4870943;29;20049;-70
2023/01/18 11:29:40;;;;;;;12.65;7.90;;;;;;;1.70;91.99;99543.53;4857817;29;20366;-70
2023/01/18 11:32:28;;;;;;;14.13;8.48;;;;;;;1.77;91.99;99540.81;4859148;29;20140;-69
2023/01/18 11:34:58;;;;;;;11.82;8.25;;;;;;;1.85;91.94;99542.44;4857653;29;20046;-70
2023/01/18 11:37:38;;;;;;;12.45;7.85;;;;;;;1.92;91.65;99547.53;4855120;29;20057;-70
2023/01/18 11:40:18;;;;;;;15.63;8.40;;;;;;;1.99;91.51;99547.41;4862757;29;20776;-70
2023/01/18 11:42:49;;;;;;;10.55;7.22;;;;;;;2.04;91.70;99538.66;4871359;29;20058;-69
2023/01/18 11:45:28;;;;;;;14.18;8.10;;;;;;;2.12;91.49;99539.44;4856042;29;20050;-69
2023/01/18 11:48:28;;;;;;;16.83;7.80;;;;;;;2.19;91.59;99535.84;4874089;29;20057;-70
2023/01/18 11:51:06;;;;;;;32.75;22.77;;;;;;;2.25;91.34;99532.28;4869517;29;20098;-70
2023/01/18 11:54:01;;;;;;;15.55;9.52;;;;;;;2.32;90.87;99539.97;4871124;29;20073;-70
2023/01/18 11:56:42;;;;;;;13.30;8.15;;;;;;;2.37;90.81;99532.06;4854096;29;20850;-70
2023/01/18 11:59:23;;;;;;;25.02;17.55;;;;;;;2.44;90.71;99533.66;4859366;29;20138;-70
2023/01/18 12:02:11;;;;;;;13.75;9.90;;;;;;;2.51;90.69;99539.63;4858322;29;20052;-71
2023/01/18 12:05:09;;;;;;;13.93;9.15;;;;;;;2.58;90.42;99541.22;4872881;29;20038;-70
2023/01/18 12:08:21;;;;;;;23.90;20.95;;;;;;;2.67;90.42;99545.41;4860175;29;20145;-71
2023/01/18 12:11:34;;;;;;;49.38;42.17;;;;;;;2.75;90.98;99553.94;4867635;29;20514;-70
2023/01/18 12:14:14;;;;;;;23.85;15.65;;;;;;;2.84;90.84;99555.50;4887615;29;20807;-70
2023/01/18 12:17:12;;;;;;;47.42;29.77;;;;;;;2.92;90.56;99555.34;4869723;29;20132;-70
2023/01/18 12:20:05;;;;;;;35.90;21.00;;;;;;;2.99;90.20;99559.56;4860175;29;20058;-70
2023/01/18 12:22:57;;;;;;;196.35;104.15;;;;;;;3.06;90.14;99568.97;4856939;29;20057;-71